Painter, Virginia
Current Conditions -  °F | °C
As of 7:35 AM on Monday 26 Jan 2015 (Local Time) from KMFV Reporting Station
Broken Clouds Broken Clouds  
Wind Chill: 37°   Ceiling: 7000
Heat Index: 43°   Visibility: 10mi
Dew Point: 36°   Wind: 10mph
Humidity: 76%   Direction: 60°ENE
Pressure: 29.74"   Gusts: NA
Location:  37.59°N, 75.78°W
Report Text: KMFV 261235Z AUTO 06009KT 10SM BKN070 BKN120 06/02 A2974 RMK AO2
Loading
Personal Weather Stations






























Interactive Weather Map New forecast layout! Learn more

10-Day Weather Forecast

Advertisements
Track Severe Weather on mobile